sensor_id;sensor_type;location;lat;lon;timestamp;P1;durP1;ratioP1;P2;durP2;ratioP2
13267;SDS011;6702;47.068;15.458;2023-06-22T00:01:53;14.57;;;11.30;;
13267;SDS011;6702;47.068;15.458;2023-06-22T00:04:56;13.17;;;11.27;;
13267;SDS011;6702;47.068;15.458;2023-06-22T00:08:01;12.40;;;11.17;;
13267;SDS011;6702;47.068;15.458;2023-06-22T00:11:05;12.50;;;10.70;;
13267;SDS011;6702;47.068;15.458;2023-06-22T00:14:08;13.10;;;10.23;;
13267;SDS011;6702;47.068;15.458;2023-06-22T00:17:13;14.13;;;10.40;;
13267;SDS011;6702;47.068;15.458;2023-06-22T00:20:16;15.47;;;11.53;;
13267;SDS011;6702;47.068;15.458;2023-06-22T00:23:20;18.07;;;9.73;;
13267;SDS011;6702;47.068;15.458;2023-06-22T00:26:25;13.27;;;9.83;;
13267;SDS011;6702;47.068;15.458;2023-06-22T00:29:31;10.87;;;9.87;;
13267;SDS011;6702;47.068;15.458;2023-06-22T00:32:35;13.87;;;10.60;;
13267;SDS011;6702;47.068;15.458;2023-06-22T00:35:39;12.80;;;11.13;;
13267;SDS011;6702;47.068;15.458;2023-06-22T00:38:42;11.63;;;10.13;;
13267;SDS011;6702;47.068;15.458;2023-06-22T00:41:46;15.07;;;9.90;;
13267;SDS011;6702;47.068;15.458;2023-06-22T00:44:49;11.67;;;10.40;;
13267;SDS011;6702;47.068;15.458;2023-06-22T00:47:57;13.00;;;10.67;;
13267;SDS011;6702;47.068;15.458;2023-06-22T00:51:01;11.63;;;10.43;;
13267;SDS011;6702;47.068;15.458;2023-06-22T00:54:05;11.93;;;10.70;;
13267;SDS011;6702;47.068;15.458;2023-06-22T00:57:08;14.57;;;10.30;;
13267;SDS011;6702;47.068;15.458;2023-06-22T01:00:13;12.33;;;10.90;;
13267;SDS011;6702;47.068;15.458;2023-06-22T01:03:19;17.53;;;11.73;;
13267;SDS011;6702;47.068;15.458;2023-06-22T01:06:25;13.03;;;11.67;;
13267;SDS011;6702;47.068;15.458;2023-06-22T01:09:42;12.73;;;11.43;;
13267;SDS011;6702;47.068;15.458;2023-06-22T01:12:52;14.00;;;10.70;;
13267;SDS011;6702;47.068;15.458;2023-06-22T01:16:00;12.50;;;11.23;;
13267;SDS011;6702;47.068;15.458;2023-06-22T01:19:13;12.73;;;10.50;;
13267;SDS011;6702;47.068;15.458;2023-06-22T01:22:32;13.57;;;12.03;;
13267;SDS011;6702;47.068;15.458;2023-06-22T01:25:46;14.40;;;11.23;;
13267;SDS011;6702;47.068;15.458;2023-06-22T01:28:57;14.17;;;11.70;;
13267;SDS011;6702;47.068;15.458;2023-06-22T01:32:03;15.20;;;10.30;;
13267;SDS011;6702;47.068;15.458;2023-06-22T01:35:10;15.70;;;10.20;;
13267;SDS011;6702;47.068;15.458;2023-06-22T01:38:14;11.73;;;10.53;;
13267;SDS011;6702;47.068;15.458;2023-06-22T01:41:18;12.47;;;11.17;;
13267;SDS011;6702;47.068;15.458;2023-06-22T01:44:24;12.60;;;11.13;;
13267;SDS011;6702;47.068;15.458;2023-06-22T01:47:28;13.50;;;11.27;;
13267;SDS011;6702;47.068;15.458;2023-06-22T01:50:32;16.37;;;11.30;;
13267;SDS011;6702;47.068;15.458;2023-06-22T01:53:35;14.07;;;11.30;;
13267;SDS011;6702;47.068;15.458;2023-06-22T01:56:38;20.80;;;10.73;;
13267;SDS011;6702;47.068;15.458;2023-06-22T01:59:46;13.37;;;10.90;;
13267;SDS011;6702;47.068;15.458;2023-06-22T02:02:54;14.50;;;10.77;;
13267;SDS011;6702;47.068;15.458;2023-06-22T02:06:03;14.27;;;10.07;;
13267;SDS011;6702;47.068;15.458;2023-06-22T02:09:09;12.00;;;10.13;;
13267;SDS011;6702;47.068;15.458;2023-06-22T02:12:17;14.77;;;10.87;;
13267;SDS011;6702;47.068;15.458;2023-06-22T02:15:25;13.43;;;11.37;;
13267;SDS011;6702;47.068;15.458;2023-06-22T02:18:28;12.77;;;10.47;;
13267;SDS011;6702;47.068;15.458;2023-06-22T02:21:33;14.47;;;11.87;;
13267;SDS011;6702;47.068;15.458;2023-06-22T02:24:36;11.80;;;10.60;;
13267;SDS011;6702;47.068;15.458;2023-06-22T02:27:39;12.83;;;10.43;;
13267;SDS011;6702;47.068;15.458;2023-06-22T02:30:44;17.50;;;10.70;;
13267;SDS011;6702;47.068;15.458;2023-06-22T02:33:47;12.13;;;10.50;;
13267;SDS011;6702;47.068;15.458;2023-06-22T02:36:51;14.27;;;10.80;;
13267;SDS011;6702;47.068;15.458;2023-06-22T02:39:56;15.30;;;11.27;;
13267;SDS011;6702;47.068;15.458;2023-06-22T02:43:05;13.60;;;11.13;;
13267;SDS011;6702;47.068;15.458;2023-06-22T02:46:09;17.50;;;12.07;;
13267;SDS011;6702;47.068;15.458;2023-06-22T02:49:13;12.30;;;11.10;;
13267;SDS011;6702;47.068;15.458;2023-06-22T02:52:16;15.07;;;12.67;;
13267;SDS011;6702;47.068;15.458;2023-06-22T02:55:19;13.70;;;12.00;;
13267;SDS011;6702;47.068;15.458;2023-06-22T02:58:22;14.50;;;12.10;;
13267;SDS011;6702;47.068;15.458;2023-06-22T03:01:27;13.73;;;12.40;;
13267;SDS011;6702;47.068;15.458;2023-06-22T03:04:41;13.67;;;11.87;;
13267;SDS011;6702;47.068;15.458;2023-06-22T03:07:45;13.87;;;12.00;;
13267;SDS011;6702;47.068;15.458;2023-06-22T03:10:48;15.53;;;13.03;;
13267;SDS011;6702;47.068;15.458;2023-06-22T03:13:51;14.07;;;12.50;;
13267;SDS011;6702;47.068;15.458;2023-06-22T03:16:56;14.37;;;11.87;;
13267;SDS011;6702;47.068;15.458;2023-06-22T03:20:04;17.70;;;13.10;;
13267;SDS011;6702;47.068;15.458;2023-06-22T03:23:10;14.70;;;12.50;;
13267;SDS011;6702;47.068;15.458;2023-06-22T03:26:16;13.40;;;11.93;;
13267;SDS011;6702;47.068;15.458;2023-06-22T03:29:19;17.37;;;12.67;;
13267;SDS011;6702;47.068;15.458;2023-06-22T03:32:23;18.13;;;13.23;;
13267;SDS011;6702;47.068;15.458;2023-06-22T03:35:29;15.13;;;12.63;;
13267;SDS011;6702;47.068;15.458;2023-06-22T03:38:32;18.53;;;13.50;;
13267;SDS011;6702;47.068;15.458;2023-06-22T03:41:35;14.13;;;12.83;;
13267;SDS011;6702;47.068;15.458;2023-06-22T03:44:39;16.50;;;14.17;;
13267;SDS011;6702;47.068;15.458;2023-06-22T03:47:43;13.47;;;12.03;;
13267;SDS011;6702;47.068;15.458;2023-06-22T03:50:46;13.70;;;12.30;;
13267;SDS011;6702;47.068;15.458;2023-06-22T03:53:49;14.80;;;12.10;;
13267;SDS011;6702;47.068;15.458;2023-06-22T03:56:53;13.47;;;11.97;;
13267;SDS011;6702;47.068;15.458;2023-06-22T03:59:57;16.40;;;12.43;;
13267;SDS011;6702;47.068;15.458;2023-06-22T04:03:04;13.20;;;11.40;;
13267;SDS011;6702;47.068;15.458;2023-06-22T04:06:09;13.23;;;11.40;;
13267;SDS011;6702;47.068;15.458;2023-06-22T04:09:12;13.73;;;12.33;;
13267;SDS011;6702;47.068;15.458;2023-06-22T04:12:16;15.07;;;12.40;;
13267;SDS011;6702;47.068;15.458;2023-06-22T04:15:20;15.00;;;11.63;;
13267;SDS011;6702;47.068;15.458;2023-06-22T04:18:24;14.60;;;13.10;;
13267;SDS011;6702;47.068;15.458;2023-06-22T04:21:27;15.70;;;13.07;;
13267;SDS011;6702;47.068;15.458;2023-06-22T04:24:31;16.20;;;14.53;;
13267;SDS011;6702;47.068;15.458;2023-06-22T04:27:34;17.40;;;15.13;;
13267;SDS011;6702;47.068;15.458;2023-06-22T04:30:38;15.73;;;13.00;;
13267;SDS011;6702;47.068;15.458;2023-06-22T04:33:49;14.90;;;13.40;;
13267;SDS011;6702;47.068;15.458;2023-06-22T04:36:52;15.47;;;13.80;;
13267;SDS011;6702;47.068;15.458;2023-06-22T04:39:56;15.93;;;14.43;;
13267;SDS011;6702;47.068;15.458;2023-06-22T04:42:59;15.93;;;14.47;;
13267;SDS011;6702;47.068;15.458;2023-06-22T04:46:03;16.33;;;14.70;;
13267;SDS011;6702;47.068;15.458;2023-06-22T04:49:08;16.97;;;14.50;;
13267;SDS011;6702;47.068;15.458;2023-06-22T04:52:12;17.07;;;15.33;;
13267;SDS011;6702;47.068;15.458;2023-06-22T04:55:21;16.47;;;14.90;;
13267;SDS011;6702;47.068;15.458;2023-06-22T04:58:27;16.50;;;14.27;;
13267;SDS011;6702;47.068;15.458;2023-06-22T05:01:33;16.03;;;14.17;;
13267;SDS011;6702;47.068;15.458;2023-06-22T05:04:38;15.60;;;14.00;;
13267;SDS011;6702;47.068;15.458;2023-06-22T05:07:42;18.83;;;14.90;;
13267;SDS011;6702;47.068;15.458;2023-06-22T05:10:46;16.70;;;14.90;;
13267;SDS011;6702;47.068;15.458;2023-06-22T05:14:05;16.83;;;15.13;;
13267;SDS011;6702;47.068;15.458;2023-06-22T05:17:09;15.50;;;14.00;;
13267;SDS011;6702;47.068;15.458;2023-06-22T05:20:18;15.20;;;13.70;;
13267;SDS011;6702;47.068;15.458;2023-06-22T05:23:21;18.73;;;15.70;;
13267;SDS011;6702;47.068;15.458;2023-06-22T05:26:24;17.27;;;14.37;;
13267;SDS011;6702;47.068;15.458;2023-06-22T05:29:28;15.67;;;14.27;;
13267;SDS011;6702;47.068;15.458;2023-06-22T05:32:31;16.60;;;15.03;;
13267;SDS011;6702;47.068;15.458;2023-06-22T05:35:36;16.03;;;14.40;;
13267;SDS011;6702;47.068;15.458;2023-06-22T05:38:39;15.80;;;14.30;;
13267;SDS011;6702;47.068;15.458;2023-06-22T05:41:43;16.63;;;14.80;;
13267;SDS011;6702;47.068;15.458;2023-06-22T05:44:47;16.97;;;15.37;;
13267;SDS011;6702;47.068;15.458;2023-06-22T05:47:50;17.07;;;14.63;;
13267;SDS011;6702;47.068;15.458;2023-06-22T05:50:55;15.47;;;13.20;;
13267;SDS011;6702;47.068;15.458;2023-06-22T05:53:58;17.90;;;16.10;;
13267;SDS011;6702;47.068;15.458;2023-06-22T05:57:01;19.80;;;15.67;;
13267;SDS011;6702;47.068;15.458;2023-06-22T06:00:06;15.50;;;13.90;;
13267;SDS011;6702;47.068;15.458;2023-06-22T06:03:12;17.50;;;14.67;;
13267;SDS011;6702;47.068;15.458;2023-06-22T06:06:20;22.00;;;15.43;;
13267;SDS011;6702;47.068;15.458;2023-06-22T06:09:24;17.73;;;15.53;;
13267;SDS011;6702;47.068;15.458;2023-06-22T06:12:27;16.80;;;14.93;;
13267;SDS011;6702;47.068;15.458;2023-06-22T06:15:30;17.67;;;14.90;;
13267;SDS011;6702;47.068;15.458;2023-06-22T06:18:33;16.03;;;14.57;;
13267;SDS011;6702;47.068;15.458;2023-06-22T06:21:40;14.70;;;13.27;;
13267;SDS011;6702;47.068;15.458;2023-06-22T06:24:43;17.03;;;13.97;;
13267;SDS011;6702;47.068;15.458;2023-06-22T06:27:46;15.93;;;14.33;;
13267;SDS011;6702;47.068;15.458;2023-06-22T06:30:50;17.40;;;14.30;;
13267;SDS011;6702;47.068;15.458;2023-06-22T06:33:54;17.43;;;14.30;;
13267;SDS011;6702;47.068;15.458;2023-06-22T06:36:58;15.20;;;12.83;;
13267;SDS011;6702;47.068;15.458;2023-06-22T06:43:08;15.50;;;13.82;;
13267;SDS011;6702;47.068;15.458;2023-06-22T06:46:11;16.83;;;15.02;;
13267;SDS011;6702;47.068;15.458;2023-06-22T06:49:14;17.83;;;14.02;;
13267;SDS011;6702;47.068;15.458;2023-06-22T06:52:19;17.65;;;14.07;;
13267;SDS011;6702;47.068;15.458;2023-06-22T06:55:22;16.15;;;13.27;;
13267;SDS011;6702;47.068;15.458;2023-06-22T06:58:26;22.23;;;15.20;;
13267;SDS011;6702;47.068;15.458;2023-06-22T07:01:30;16.00;;;14.30;;
13267;SDS011;6702;47.068;15.458;2023-06-22T07:04:35;16.15;;;13.48;;
13267;SDS011;6702;47.068;15.458;2023-06-22T07:07:40;14.55;;;13.18;;
13267;SDS011;6702;47.068;15.458;2023-06-22T07:10:44;14.32;;;12.70;;
13267;SDS011;6702;47.068;15.458;2023-06-22T07:13:47;16.05;;;13.32;;
13267;SDS011;6702;47.068;15.458;2023-06-22T07:16:50;13.88;;;12.38;;
13267;SDS011;6702;47.068;15.458;2023-06-22T07:19:54;13.88;;;12.52;;
13267;SDS011;6702;47.068;15.458;2023-06-22T07:22:58;14.05;;;12.65;;
13267;SDS011;6702;47.068;15.458;2023-06-22T07:26:01;15.93;;;14.32;;
13267;SDS011;6702;47.068;15.458;2023-06-22T07:29:07;14.30;;;12.93;;
13267;SDS011;6702;47.068;15.458;2023-06-22T07:32:10;17.17;;;15.38;;
13267;SDS011;6702;47.068;15.458;2023-06-22T07:35:14;14.65;;;13.15;;
13267;SDS011;6702;47.068;15.458;2023-06-22T07:38:19;14.68;;;13.38;;
13267;SDS011;6702;47.068;15.458;2023-06-22T07:41:22;13.95;;;12.30;;
13267;SDS011;6702;47.068;15.458;2023-06-22T07:44:25;14.85;;;12.20;;
13267;SDS011;6702;47.068;15.458;2023-06-22T07:47:29;15.20;;;12.90;;
13267;SDS011;6702;47.068;15.458;2023-06-22T07:50:35;15.10;;;13.63;;
13267;SDS011;6702;47.068;15.458;2023-06-22T07:53:40;15.13;;;13.50;;
13267;SDS011;6702;47.068;15.458;2023-06-22T07:56:44;17.70;;;12.98;;
13267;SDS011;6702;47.068;15.458;2023-06-22T07:59:49;14.40;;;13.00;;
13267;SDS011;6702;47.068;15.458;2023-06-22T08:02:52;14.75;;;13.35;;
13267;SDS011;6702;47.068;15.458;2023-06-22T08:05:55;15.95;;;14.35;;
13267;SDS011;6702;47.068;15.458;2023-06-22T08:09:00;16.70;;;13.63;;
13267;SDS011;6702;47.068;15.458;2023-06-22T08:12:04;17.38;;;13.18;;
13267;SDS011;6702;47.068;15.458;2023-06-22T08:15:08;13.20;;;11.95;;
13267;SDS011;6702;47.068;15.458;2023-06-22T08:18:11;18.25;;;13.57;;
13267;SDS011;6702;47.068;15.458;2023-06-22T08:21:15;14.82;;;13.20;;
13267;SDS011;6702;47.068;15.458;2023-06-22T08:24:20;14.45;;;13.10;;
13267;SDS011;6702;47.068;15.458;2023-06-22T08:27:23;14.55;;;13.25;;
13267;SDS011;6702;47.068;15.458;2023-06-22T08:30:29;15.35;;;14.05;;
13267;SDS011;6702;47.068;15.458;2023-06-22T08:33:33;15.02;;;12.98;;
13267;SDS011;6702;47.068;15.458;2023-06-22T08:36:36;16.83;;;13.68;;
13267;SDS011;6702;47.068;15.458;2023-06-22T08:39:44;18.05;;;13.10;;
13267;SDS011;6702;47.068;15.458;2023-06-22T08:42:48;13.60;;;12.32;;
13267;SDS011;6702;47.068;15.458;2023-06-22T08:45:51;14.88;;;13.43;;
13267;SDS011;6702;47.068;15.458;2023-06-22T08:48:54;13.75;;;11.35;;
13267;SDS011;6702;47.068;15.458;2023-06-22T08:51:57;16.13;;;12.80;;
13267;SDS011;6702;47.068;15.458;2023-06-22T08:55:02;15.05;;;13.00;;
13267;SDS011;6702;47.068;15.458;2023-06-22T08:58:06;14.35;;;12.95;;
13267;SDS011;6702;47.068;15.458;2023-06-22T09:01:09;13.48;;;12.13;;
13267;SDS011;6702;47.068;15.458;2023-06-22T09:04:12;15.68;;;14.05;;
13267;SDS011;6702;47.068;15.458;2023-06-22T09:07:16;14.93;;;13.05;;
13267;SDS011;6702;47.068;15.458;2023-06-22T09:10:25;14.38;;;12.68;;
13267;SDS011;6702;47.068;15.458;2023-06-22T09:13:30;17.85;;;13.00;;
13267;SDS011;6702;47.068;15.458;2023-06-22T09:16:33;13.68;;;12.48;;
13267;SDS011;6702;47.068;15.458;2023-06-22T09:19:37;14.77;;;13.27;;
13267;SDS011;6702;47.068;15.458;2023-06-22T09:22:40;15.15;;;13.70;;
13267;SDS011;6702;47.068;15.458;2023-06-22T09:25:45;15.23;;;13.65;;
13267;SDS011;6702;47.068;15.458;2023-06-22T09:28:49;14.90;;;13.20;;
13267;SDS011;6702;47.068;15.458;2023-06-22T09:31:52;15.13;;;13.10;;
13267;SDS011;6702;47.068;15.458;2023-06-22T09:34:57;15.02;;;13.63;;
13267;SDS011;6702;47.068;15.458;2023-06-22T09:38:00;14.73;;;13.32;;
13267;SDS011;6702;47.068;15.458;2023-06-22T09:41:05;14.60;;;13.13;;
13267;SDS011;6702;47.068;15.458;2023-06-22T09:44:08;14.32;;;12.70;;
13267;SDS011;6702;47.068;15.458;2023-06-22T09:47:11;15.45;;;13.82;;
13267;SDS011;6702;47.068;15.458;2023-06-22T09:50:14;15.20;;;13.63;;
13267;SDS011;6702;47.068;15.458;2023-06-22T09:53:18;14.35;;;12.68;;
13267;SDS011;6702;47.068;15.458;2023-06-22T09:56:23;13.77;;;12.35;;
13267;SDS011;6702;47.068;15.458;2023-06-22T09:59:29;14.73;;;12.65;;
13267;SDS011;6702;47.068;15.458;2023-06-22T10:02:33;15.43;;;13.68;;
13267;SDS011;6702;47.068;15.458;2023-06-22T10:05:36;15.70;;;14.05;;
13267;SDS011;6702;47.068;15.458;2023-06-22T10:08:39;15.32;;;13.57;;
13267;SDS011;6702;47.068;15.458;2023-06-22T10:11:44;14.15;;;12.63;;
13267;SDS011;6702;47.068;15.458;2023-06-22T10:14:47;15.85;;;13.90;;
13267;SDS011;6702;47.068;15.458;2023-06-22T10:17:51;15.25;;;13.40;;
13267;SDS011;6702;47.068;15.458;2023-06-22T10:20:54;15.20;;;13.90;;
13267;SDS011;6702;47.068;15.458;2023-06-22T10:23:57;14.93;;;13.68;;
13267;SDS011;6702;47.068;15.458;2023-06-22T10:27:05;14.32;;;12.95;;
13267;SDS011;6702;47.068;15.458;2023-06-22T10:30:09;16.85;;;13.80;;
13267;SDS011;6702;47.068;15.458;2023-06-22T10:33:14;15.48;;;13.93;;
13267;SDS011;6702;47.068;15.458;2023-06-22T10:36:18;15.10;;;13.77;;
13267;SDS011;6702;47.068;15.458;2023-06-22T10:39:21;13.77;;;12.48;;
13267;SDS011;6702;47.068;15.458;2023-06-22T10:42:25;14.40;;;12.93;;
13267;SDS011;6702;47.068;15.458;2023-06-22T10:45:28;15.48;;;13.93;;
13267;SDS011;6702;47.068;15.458;2023-06-22T10:48:32;17.05;;;14.23;;
13267;SDS011;6702;47.068;15.458;2023-06-22T10:51:36;14.82;;;13.27;;
13267;SDS011;6702;47.068;15.458;2023-06-22T10:54:39;15.57;;;14.02;;
13267;SDS011;6702;47.068;15.458;2023-06-22T10:57:43;16.70;;;15.00;;
13267;SDS011;6702;47.068;15.458;2023-06-22T11:00:49;17.33;;;15.73;;
13267;SDS011;6702;47.068;15.458;2023-06-22T11:03:53;15.88;;;14.55;;
13267;SDS011;6702;47.068;15.458;2023-06-22T11:06:56;16.98;;;15.40;;
13267;SDS011;6702;47.068;15.458;2023-06-22T11:09:59;17.08;;;15.35;;
13267;SDS011;6702;47.068;15.458;2023-06-22T11:13:04;14.65;;;13.35;;
13267;SDS011;6702;47.068;15.458;2023-06-22T11:16:12;15.68;;;13.98;;
13267;SDS011;6702;47.068;15.458;2023-06-22T11:19:15;21.05;;;14.23;;
13267;SDS011;6702;47.068;15.458;2023-06-22T11:22:19;15.27;;;13.75;;
13267;SDS011;6702;47.068;15.458;2023-06-22T11:25:22;16.75;;;14.98;;
13267;SDS011;6702;47.068;15.458;2023-06-22T11:28:26;18.05;;;14.93;;
13267;SDS011;6702;47.068;15.458;2023-06-22T11:31:30;16.05;;;14.65;;
13267;SDS011;6702;47.068;15.458;2023-06-22T11:34:33;14.15;;;12.73;;
13267;SDS011;6702;47.068;15.458;2023-06-22T11:37:36;16.20;;;14.50;;
13267;SDS011;6702;47.068;15.458;2023-06-22T11:40:39;16.27;;;14.68;;
13267;SDS011;6702;47.068;15.458;2023-06-22T11:43:44;17.60;;;14.60;;
13267;SDS011;6702;47.068;15.458;2023-06-22T11:46:47;15.38;;;13.48;;
13267;SDS011;6702;47.068;15.458;2023-06-22T11:49:50;15.93;;;14.38;;
13267;SDS011;6702;47.068;15.458;2023-06-22T11:52:54;15.98;;;14.27;;
13267;SDS011;6702;47.068;15.458;2023-06-22T11:55:57;16.83;;;14.85;;
13267;SDS011;6702;47.068;15.458;2023-06-22T11:59:02;16.00;;;14.60;;
13267;SDS011;6702;47.068;15.458;2023-06-22T12:02:06;18.15;;;15.07;;
13267;SDS011;6702;47.068;15.458;2023-06-22T12:05:11;17.08;;;15.50;;
13267;SDS011;6702;47.068;15.458;2023-06-22T12:08:14;16.98;;;15.23;;
13267;SDS011;6702;47.068;15.458;2023-06-22T12:11:18;16.65;;;15.15;;
13267;SDS011;6702;47.068;15.458;2023-06-22T12:14:25;16.48;;;15.02;;
13267;SDS011;6702;47.068;15.458;2023-06-22T12:17:30;16.70;;;14.73;;
13267;SDS011;6702;47.068;15.458;2023-06-22T12:20:33;17.50;;;15.90;;
13267;SDS011;6702;47.068;15.458;2023-06-22T12:23:38;16.45;;;14.75;;
13267;SDS011;6702;47.068;15.458;2023-06-22T12:26:41;17.58;;;15.65;;
13267;SDS011;6702;47.068;15.458;2023-06-22T12:29:46;18.48;;;15.73;;
13267;SDS011;6702;47.068;15.458;2023-06-22T12:32:49;17.50;;;15.75;;
13267;SDS011;6702;47.068;15.458;2023-06-22T12:35:55;16.80;;;14.93;;
13267;SDS011;6702;47.068;15.458;2023-06-22T12:38:58;16.80;;;15.15;;
13267;SDS011;6702;47.068;15.458;2023-06-22T12:42:01;16.50;;;15.00;;
13267;SDS011;6702;47.068;15.458;2023-06-22T12:45:07;16.17;;;14.68;;
13267;SDS011;6702;47.068;15.458;2023-06-22T12:48:12;16.85;;;15.25;;
13267;SDS011;6702;47.068;15.458;2023-06-22T12:51:20;17.83;;;15.00;;
13267;SDS011;6702;47.068;15.458;2023-06-22T12:54:24;20.45;;;15.88;;
13267;SDS011;6702;47.068;15.458;2023-06-22T12:57:35;18.10;;;16.02;;
13267;SDS011;6702;47.068;15.458;2023-06-22T13:00:40;17.38;;;15.00;;
13267;SDS011;6702;47.068;15.458;2023-06-22T13:03:43;23.75;;;16.67;;
13267;SDS011;6702;47.068;15.458;2023-06-22T13:06:46;16.80;;;15.10;;
13267;SDS011;6702;47.068;15.458;2023-06-22T13:09:53;16.77;;;15.27;;
13267;SDS011;6702;47.068;15.458;2023-06-22T13:12:56;16.95;;;14.93;;
13267;SDS011;6702;47.068;15.458;2023-06-22T13:29:50;18.73;;;16.08;;
13267;SDS011;6702;47.068;15.458;2023-06-22T13:32:53;17.13;;;15.35;;
13267;SDS011;6702;47.068;15.458;2023-06-22T13:35:57;16.83;;;14.93;;
13267;SDS011;6702;47.068;15.458;2023-06-22T13:39:00;16.35;;;14.82;;
13267;SDS011;6702;47.068;15.458;2023-06-22T13:42:03;16.48;;;14.75;;
13267;SDS011;6702;47.068;15.458;2023-06-22T13:45:09;16.02;;;14.35;;
13267;SDS011;6702;47.068;15.458;2023-06-22T13:48:12;19.17;;;16.77;;
13267;SDS011;6702;47.068;15.458;2023-06-22T13:51:16;17.95;;;16.17;;
13267;SDS011;6702;47.068;15.458;2023-06-22T13:54:19;18.98;;;15.70;;
13267;SDS011;6702;47.068;15.458;2023-06-22T13:57:30;19.98;;;16.35;;
13267;SDS011;6702;47.068;15.458;2023-06-22T14:00:34;18.60;;;16.77;;
13267;SDS011;6702;47.068;15.458;2023-06-22T14:03:38;19.27;;;14.80;;
13267;SDS011;6702;47.068;15.458;2023-06-22T14:06:41;18.92;;;16.65;;
13267;SDS011;6702;47.068;15.458;2023-06-22T14:09:45;17.90;;;16.15;;
13267;SDS011;6702;47.068;15.458;2023-06-22T14:12:48;22.75;;;15.30;;
13267;SDS011;6702;47.068;15.458;2023-06-22T14:15:52;17.95;;;16.25;;
13267;SDS011;6702;47.068;15.458;2023-06-22T14:18:56;17.83;;;15.98;;
13267;SDS011;6702;47.068;15.458;2023-06-22T14:21:59;16.92;;;15.43;;
13267;SDS011;6702;47.068;15.458;2023-06-22T14:25:04;17.60;;;15.90;;
13267;SDS011;6702;47.068;15.458;2023-06-22T14:28:08;19.27;;;15.48;;
13267;SDS011;6702;47.068;15.458;2023-06-22T14:31:12;21.38;;;17.10;;
13267;SDS011;6702;47.068;15.458;2023-06-22T14:34:16;18.42;;;16.65;;
13267;SDS011;6702;47.068;15.458;2023-06-22T14:37:19;19.42;;;17.38;;
13267;SDS011;6702;47.068;15.458;2023-06-22T14:40:23;18.33;;;15.48;;
13267;SDS011;6702;47.068;15.458;2023-06-22T14:43:27;18.95;;;15.02;;
13267;SDS011;6702;47.068;15.458;2023-06-22T14:46:31;16.90;;;15.15;;
13267;SDS011;6702;47.068;15.458;2023-06-22T14:49:35;19.17;;;17.08;;
13267;SDS011;6702;47.068;15.458;2023-06-22T14:52:38;18.23;;;16.27;;
13267;SDS011;6702;47.068;15.458;2023-06-22T14:55:41;18.50;;;16.52;;
13267;SDS011;6702;47.068;15.458;2023-06-22T14:58:44;20.23;;;17.27;;
13267;SDS011;6702;47.068;15.458;2023-06-22T15:01:50;19.75;;;17.67;;
13267;SDS011;6702;47.068;15.458;2023-06-22T15:04:53;19.48;;;16.55;;
13267;SDS011;6702;47.068;15.458;2023-06-22T15:07:57;18.83;;;16.88;;
13267;SDS011;6702;47.068;15.458;2023-06-22T15:11:00;19.52;;;16.45;;
13267;SDS011;6702;47.068;15.458;2023-06-22T15:14:04;18.50;;;16.67;;
13267;SDS011;6702;47.068;15.458;2023-06-22T15:17:08;19.45;;;17.00;;
13267;SDS011;6702;47.068;15.458;2023-06-22T15:20:12;19.17;;;17.20;;
13267;SDS011;6702;47.068;15.458;2023-06-22T15:23:17;18.27;;;16.33;;
13267;SDS011;6702;47.068;15.458;2023-06-22T15:26:20;18.85;;;16.77;;
13267;SDS011;6702;47.068;15.458;2023-06-22T15:29:23;20.70;;;17.88;;
13267;SDS011;6702;47.068;15.458;2023-06-22T15:32:28;18.52;;;16.73;;
13267;SDS011;6702;47.068;15.458;2023-06-22T15:35:31;17.83;;;16.10;;
13267;SDS011;6702;47.068;15.458;2023-06-22T15:38:34;21.15;;;16.85;;
13267;SDS011;6702;47.068;15.458;2023-06-22T15:41:39;18.42;;;16.70;;
13267;SDS011;6702;47.068;15.458;2023-06-22T15:44:43;17.98;;;16.17;;
13267;SDS011;6702;47.068;15.458;2023-06-22T15:47:47;18.55;;;16.67;;
13267;SDS011;6702;47.068;15.458;2023-06-22T15:50:51;19.45;;;17.45;;
13267;SDS011;6702;47.068;15.458;2023-06-22T15:53:54;18.83;;;17.00;;
13267;SDS011;6702;47.068;15.458;2023-06-22T15:56:59;18.58;;;16.70;;
13267;SDS011;6702;47.068;15.458;2023-06-22T16:00:04;20.90;;;18.27;;
13267;SDS011;6702;47.068;15.458;2023-06-22T16:03:10;21.17;;;17.80;;
13267;SDS011;6702;47.068;15.458;2023-06-22T16:06:14;19.60;;;17.60;;
13267;SDS011;6702;47.068;15.458;2023-06-22T16:09:17;19.08;;;17.15;;
13267;SDS011;6702;47.068;15.458;2023-06-22T16:12:20;19.50;;;17.17;;
13267;SDS011;6702;47.068;15.458;2023-06-22T16:15:23;20.08;;;17.95;;
13267;SDS011;6702;47.068;15.458;2023-06-22T16:18:28;19.70;;;17.63;;
13267;SDS011;6702;47.068;15.458;2023-06-22T16:21:31;20.38;;;18.20;;
13267;SDS011;6702;47.068;15.458;2023-06-22T16:24:34;19.83;;;17.65;;
13267;SDS011;6702;47.068;15.458;2023-06-22T16:27:37;19.80;;;18.10;;
13267;SDS011;6702;47.068;15.458;2023-06-22T16:30:40;19.25;;;17.33;;
13267;SDS011;6702;47.068;15.458;2023-06-22T16:33:45;21.52;;;19.20;;
13267;SDS011;6702;47.068;15.458;2023-06-22T16:36:49;20.20;;;18.38;;
13267;SDS011;6702;47.068;15.458;2023-06-22T16:39:53;21.52;;;19.30;;
13267;SDS011;6702;47.068;15.458;2023-06-22T16:42:59;21.10;;;19.10;;
13267;SDS011;6702;47.068;15.458;2023-06-22T16:46:02;21.20;;;19.05;;
13267;SDS011;6702;47.068;15.458;2023-06-22T16:49:07;23.40;;;20.60;;
13267;SDS011;6702;47.068;15.458;2023-06-22T16:52:10;20.60;;;18.67;;
13267;SDS011;6702;47.068;15.458;2023-06-22T16:55:13;20.88;;;19.15;;
13267;SDS011;6702;47.068;15.458;2023-06-22T16:58:17;22.52;;;19.65;;
13267;SDS011;6702;47.068;15.458;2023-06-22T17:01:24;22.65;;;20.45;;
13267;SDS011;6702;47.068;15.458;2023-06-22T17:04:29;21.55;;;19.20;;
13267;SDS011;6702;47.068;15.458;2023-06-22T17:07:35;20.88;;;18.67;;
13267;SDS011;6702;47.068;15.458;2023-06-22T17:10:40;23.10;;;20.70;;
13267;SDS011;6702;47.068;15.458;2023-06-22T17:13:44;21.13;;;18.90;;
13267;SDS011;6702;47.068;15.458;2023-06-22T17:16:51;22.80;;;20.55;;
13267;SDS011;6702;47.068;15.458;2023-06-22T17:19:56;23.23;;;20.92;;
13267;SDS011;6702;47.068;15.458;2023-06-22T17:22:59;20.65;;;18.75;;
13267;SDS011;6702;47.068;15.458;2023-06-22T17:26:02;24.73;;;20.52;;
13267;SDS011;6702;47.068;15.458;2023-06-22T17:29:08;22.42;;;20.33;;
13267;SDS011;6702;47.068;15.458;2023-06-22T17:32:11;21.17;;;18.98;;
13267;SDS011;6702;47.068;15.458;2023-06-22T17:35:16;20.73;;;18.67;;
13267;SDS011;6702;47.068;15.458;2023-06-22T17:38:19;22.55;;;20.15;;
13267;SDS011;6702;47.068;15.458;2023-06-22T17:41:28;22.23;;;20.13;;
13267;SDS011;6702;47.068;15.458;2023-06-22T17:44:34;23.33;;;20.48;;
13267;SDS011;6702;47.068;15.458;2023-06-22T17:47:37;25.42;;;20.20;;
13267;SDS011;6702;47.068;15.458;2023-06-22T17:50:42;21.75;;;19.17;;
13267;SDS011;6702;47.068;15.458;2023-06-22T17:53:48;21.95;;;19.95;;
13267;SDS011;6702;47.068;15.458;2023-06-22T17:56:52;21.55;;;19.42;;
13267;SDS011;6702;47.068;15.458;2023-06-22T17:59:55;22.73;;;20.48;;
13267;SDS011;6702;47.068;15.458;2023-06-22T18:02:58;21.95;;;19.92;;
13267;SDS011;6702;47.068;15.458;2023-06-22T18:06:03;22.48;;;20.42;;
13267;SDS011;6702;47.068;15.458;2023-06-22T18:09:10;22.67;;;20.27;;
13267;SDS011;6702;47.068;15.458;2023-06-22T18:12:18;22.38;;;20.40;;
13267;SDS011;6702;47.068;15.458;2023-06-22T18:15:22;21.75;;;19.55;;